Time;durP1;ratioP1;P1;durP2;ratioP2;P2;SDS_P1;SDS_P2;PMS_P1;PMS_P2;Temp;Humidity;BMP_temperature;BMP_pressure;BME280_temperature;BME280_humidity;BME280_pressure;Samples;Min_cycle;Max_cycle;Signal;HPM_P1;HPM_P2
2022/03/07 00:00:36;;;;;;;;;;;153.80;2252.80;;;;;;5042091;28;19939;-79
2022/03/07 00:03:02;;;;;;;;;;;153.80;2252.80;;;;;;5041658;28;19904;-79
2022/03/07 00:05:28;;;;;;;;;;;153.90;2252.80;;;;;;5040811;28;19939;-78
2022/03/07 00:07:53;;;;;;;;;;;153.90;2252.80;;;;;;5044981;28;20355;-79
2022/03/07 00:10:19;;;;;;;;;;;153.90;2252.80;;;;;;5042137;28;20011;-79
2022/03/07 00:12:45;;;;;;;;;;;153.70;2252.80;;;;;;5042614;28;20291;-78
2022/03/07 00:15:10;;;;;;;;;;;153.80;2252.80;;;;;;5041510;28;19905;-79
2022/03/07 00:17:36;;;;;;;;;;;153.80;2252.80;;;;;;5042305;28;19963;-79
2022/03/07 00:20:02;;;;;;;;;;;153.80;2252.80;;;;;;5044313;28;19905;-79
2022/03/07 00:22:28;;;;;;;;;;;153.80;2252.80;;;;;;5045461;28;19913;-79
2022/03/07 00:24:53;;;;;;;;;;;153.70;2252.80;;;;;;5046276;28;19912;-78
2022/03/07 00:27:19;;;;;;;;;;;154.00;2252.80;;;;;;5045481;28;19931;-79
2022/03/07 00:29:45;;;;;;;;;;;153.70;2252.80;;;;;;5047667;28;20397;-79
2022/03/07 00:32:10;;;;;;;;;;;153.70;2252.80;;;;;;5047291;28;19913;-78
2022/03/07 00:34:36;;;;;;;;;;;153.70;2252.80;;;;;;5045840;28;19905;-79
2022/03/07 00:37:01;;;;;;;;;;;153.70;2252.80;;;;;;5046998;28;19905;-79
2022/03/07 00:39:27;;;;;;;;;;;153.60;2252.80;;;;;;5048573;28;20294;-78
2022/03/07 00:41:53;;;;;;;;;;;128.90;2252.80;;;;;;5041134;28;19920;-78
2022/03/07 00:44:18;;;;;;;;;;;128.90;2252.80;;;;;;5043802;28;20106;-79
2022/03/07 00:46:44;;;;;;;;;;;128.90;2252.80;;;;;;5045087;28;19905;-78
2022/03/07 00:49:09;;;;;;;;;;;128.80;2252.80;;;;;;5046462;28;19904;-78
2022/03/07 00:51:35;;;;;;;;;;;128.90;2252.80;;;;;;5044477;28;19904;-79
2022/03/07 00:54:01;;;;;;;;;;;153.60;2252.80;;;;;;5045886;28;20338;-79
2022/03/07 00:56:26;;;;;;;;;;;128.90;2252.80;;;;;;5045823;28;19912;-79
2022/03/07 00:58:52;;;;;;;;;;;153.60;2252.80;;;;;;5046513;28;19905;-79
2022/03/07 01:01:18;;;;;;;;;;;153.60;2252.80;;;;;;5046146;28;19911;-79
2022/03/07 01:03:43;;;;;;;;;;;153.60;2252.80;;;;;;5046532;28;20382;-79
2022/03/07 01:06:09;;;;;;;;;;;128.90;2252.80;;;;;;5043658;28;20313;-79
2022/03/07 01:08:34;;;;;;;;;;;128.90;2252.80;;;;;;5046140;28;19912;-79
2022/03/07 01:11:00;;;;;;;;;;;153.60;2252.80;;;;;;5044720;28;19916;-79
2022/03/07 01:13:25;;;;;;;;;;;153.60;2252.80;;;;;;5044389;28;20344;-78
2022/03/07 01:15:51;;;;;;;;;;;153.60;2252.80;;;;;;5045878;28;19987;-78
2022/03/07 01:18:17;;;;;;;;;;;153.60;2252.80;;;;;;5044235;28;19982;-78
2022/03/07 01:20:42;;;;;;;;;;;128.90;2252.80;;;;;;5044844;28;19912;-79
2022/03/07 01:23:08;;;;;;;;;;;153.60;2252.80;;;;;;5045641;28;19955;-79
2022/03/07 01:25:34;;;;;;;;;;;153.60;2252.80;;;;;;5044956;28;20372;-79
2022/03/07 01:28:00;;;;;;;;;;;153.80;2252.80;;;;;;5045336;28;19908;-79
2022/03/07 01:30:25;;;;;;;;;;;153.60;2252.80;;;;;;5044916;28;20025;-79
2022/03/07 01:32:52;;;;;;;;;;;153.60;2252.80;;;;;;5042481;28;20338;-79
2022/03/07 01:35:18;;;;;;;;;;;153.60;2252.80;;;;;;5043880;28;19983;-79
2022/03/07 01:37:44;;;;;;;;;;;128.90;2252.80;;;;;;5043600;28;19905;-79
2022/03/07 01:40:10;;;;;;;;;;;128.90;2252.80;;;;;;5043461;28;19909;-78
2022/03/07 01:42:35;;;;;;;;;;;153.60;2252.80;;;;;;5040699;28;19913;-79
2022/03/07 01:45:11;;;;;;;;;;;153.60;2252.80;;;;;;5044374;28;20251;-79
2022/03/07 01:47:37;;;;;;;;;;;153.60;2252.80;;;;;;5041056;28;19951;-79
2022/03/07 01:50:04;;;;;;;;;;;153.60;2252.80;;;;;;5044062;28;19909;-78
2022/03/07 01:52:31;;;;;;;;;;;153.70;2252.80;;;;;;5046218;28;20011;-79
2022/03/07 01:54:57;;;;;;;;;;;153.70;2252.80;;;;;;5039889;28;19905;-78
2022/03/07 01:57:22;;;;;;;;;;;153.70;2252.80;;;;;;5043876;28;19919;-78
2022/03/07 01:59:48;;;;;;;;;;;153.70;2252.80;;;;;;5045859;28;19909;-79
2022/03/07 02:02:14;;;;;;;;;;;153.70;2252.80;;;;;;5045093;28;20401;-79
2022/03/07 02:04:40;;;;;;;;;;;128.80;2252.80;;;;;;5046330;28;20370;-79
2022/03/07 02:07:06;;;;;;;;;;;128.90;2252.80;;;;;;5041305;28;19940;-79
2022/03/07 02:09:31;;;;;;;;;;;153.60;2252.80;;;;;;5041437;28;20382;-79
2022/03/07 02:11:57;;;;;;;;;;;128.60;2252.80;;;;;;5044135;28;19913;-79
2022/03/07 02:14:24;;;;;;;;;;;128.80;2252.80;;;;;;5044138;28;19921;-79
2022/03/07 02:16:50;;;;;;;;;;;128.80;2252.80;;;;;;5045637;28;20266;-79
2022/03/07 02:19:15;;;;;;;;;;;128.70;2252.80;;;;;;5046232;28;19908;-79
2022/03/07 02:21:42;;;;;;;;;;;128.80;2252.80;;;;;;5043278;28;19954;-79
2022/03/07 02:24:08;;;;;;;;;;;128.80;2252.80;;;;;;5043052;28;19912;-79
2022/03/07 02:26:33;;;;;;;;;;;128.80;2252.80;;;;;;5041548;28;19913;-79
2022/03/07 02:28:59;;;;;;;;;;;128.90;2252.80;;;;;;5045671;28;19916;-78
2022/03/07 02:31:25;;;;;;;;;;;128.80;2252.80;;;;;;5046432;28;20007;-80
2022/03/07 02:33:50;;;;;;;;;;;128.60;2252.80;;;;;;5046430;28;20351;-78
2022/03/07 02:36:16;;;;;;;;;;;128.50;2252.80;;;;;;5042552;28;19912;-79
2022/03/07 02:38:42;;;;;;;;;;;128.60;2252.80;;;;;;5043751;28;19987;-79
2022/03/07 02:41:07;;;;;;;;;;;128.50;2252.80;;;;;;5041656;28;19915;-78
2022/03/07 02:43:33;;;;;;;;;;;128.50;2252.80;;;;;;5044601;28;19959;-79
2022/03/07 02:45:58;;;;;;;;;;;128.50;2252.80;;;;;;5038341;28;20330;-78
2022/03/07 02:48:25;;;;;;;;;;;128.50;2252.80;;;;;;5043667;28;19905;-79
2022/03/07 02:50:50;;;;;;;;;;;128.60;2252.80;;;;;;5043973;28;19920;-79
2022/03/07 02:53:16;;;;;;;;;;;128.80;2252.80;;;;;;5041960;28;19913;-79
2022/03/07 02:55:42;;;;;;;;;;;128.80;2252.80;;;;;;5043856;28;19905;-79
2022/03/07 02:58:07;;;;;;;;;;;128.90;2252.80;;;;;;5043045;28;20321;-79
2022/03/07 03:00:33;;;;;;;;;;;128.80;2252.80;;;;;;5042163;28;19934;-79
2022/03/07 03:02:59;;;;;;;;;;;128.90;2252.80;;;;;;5041226;28;20309;-79
2022/03/07 03:05:25;;;;;;;;;;;128.80;2252.80;;;;;;5041086;28;20278;-79
2022/03/07 03:07:53;;;;;;;;;;;128.90;2252.80;;;;;;5043427;28;20004;-78
2022/03/07 03:10:19;;;;;;;;;;;128.90;2252.80;;;;;;5041887;28;19974;-79
2022/03/07 03:12:45;;;;;;;;;;;128.90;2252.80;;;;;;5042933;28;19913;-79
2022/03/07 03:15:12;;;;;;;;;;;128.90;2252.80;;;;;;5042898;28;19913;-79
2022/03/07 03:17:41;;;;;;;;;;;128.90;2252.80;;;;;;5041873;28;19905;-79
2022/03/07 03:20:07;;;;;;;;;;;128.90;2252.80;;;;;;5043106;28;19927;-79
2022/03/07 03:22:34;;;;;;;;;;;128.90;2252.80;;;;;;5043633;28;20047;-79
2022/03/07 03:24:59;;;;;;;;;;;153.60;2252.80;;;;;;5041033;28;19923;-79
2022/03/07 03:27:25;;;;;;;;;;;153.60;2252.80;;;;;;5038200;28;19905;-79
2022/03/07 03:29:50;;;;;;;;;;;128.90;2252.80;;;;;;5042055;28;19908;-79
2022/03/07 03:32:16;;;;;;;;;;;153.70;2252.80;;;;;;5044751;28;19927;-79
2022/03/07 03:34:41;;;;;;;;;;;153.70;2252.80;;;;;;5044597;28;19912;-78
2022/03/07 03:37:07;;;;;;;;;;;153.70;2252.80;;;;;;5042573;28;19967;-79
2022/03/07 03:39:33;;;;;;;;;;;153.70;2252.80;;;;;;5043091;28;19905;-79
2022/03/07 03:41:58;;;;;;;;;;;153.70;2252.80;;;;;;5044626;28;19905;-79
2022/03/07 03:44:24;;;;;;;;;;;153.70;2252.80;;;;;;5044426;28;19917;-78
2022/03/07 03:46:49;;;;;;;;;;;153.70;2252.80;;;;;;5041242;28;19908;-78
2022/03/07 03:49:15;;;;;;;;;;;128.90;2252.80;;;;;;5043468;28;19912;-79
2022/03/07 03:51:41;;;;;;;;;;;128.40;2252.80;;;;;;5043729;28;20353;-78
2022/03/07 03:54:07;;;;;;;;;;;128.50;2252.80;;;;;;5043068;28;19913;-79
2022/03/07 03:56:32;;;;;;;;;;;128.60;2252.80;;;;;;5045825;28;19951;-79
2022/03/07 03:58:58;;;;;;;;;;;128.40;2252.80;;;;;;5045781;28;19991;-79
2022/03/07 04:01:24;;;;;;;;;;;128.10;2252.80;;;;;;5047404;28;19908;-79
2022/03/07 04:03:49;;;;;;;;;;;103.30;2227.20;;;;;;5046229;28;19916;-78
2022/03/07 04:06:15;;;;;;;;;;;128.10;2252.80;;;;;;5045828;28;19954;-79
2022/03/07 04:08:43;;;;;;;;;;;128.20;2252.80;;;;;;5047966;28;19905;-78
2022/03/07 04:11:09;;;;;;;;;;;128.20;2252.80;;;;;;5041375;28;19940;-78
2022/03/07 04:13:35;;;;;;;;;;;128.10;2252.80;;;;;;5047837;28;19968;-79
2022/03/07 04:16:01;;;;;;;;;;;128.20;2252.80;;;;;;5045958;28;20012;-79
2022/03/07 04:18:26;;;;;;;;;;;128.20;2252.80;;;;;;5047889;28;19904;-79
2022/03/07 04:20:52;;;;;;;;;;;128.40;2252.80;;;;;;5047449;28;19911;-78
2022/03/07 04:23:20;;;;;;;;;;;128.50;2252.80;;;;;;5046076;28;19909;-79
2022/03/07 04:25:47;;;;;;;;;;;128.30;2252.80;;;;;;5041211;28;19905;-78
2022/03/07 04:28:13;;;;;;;;;;;128.50;2252.80;;;;;;5046592;28;19970;-78
2022/03/07 04:30:39;;;;;;;;;;;153.80;2252.80;;;;;;5043810;28;20358;-79
2022/03/07 04:33:05;;;;;;;;;;;128.20;2252.80;;;;;;5053284;28;19912;-78
2022/03/07 04:35:31;;;;;;;;;;;128.30;2252.80;;;;;;5055249;28;20483;-77
2022/03/07 04:37:56;;;;;;;;;;;128.40;2252.80;;;;;;5055757;28;19909;-78
2022/03/07 04:40:22;;;;;;;;;;;128.40;2252.80;;;;;;5055400;28;19995;-78
2022/03/07 04:42:47;;;;;;;;;;;128.40;2252.80;;;;;;5055554;28;20392;-78
2022/03/07 04:45:13;;;;;;;;;;;128.40;2252.80;;;;;;5056079;28;20375;-78
2022/03/07 04:47:40;;;;;;;;;;;128.50;2252.80;;;;;;5057600;28;19908;-78
2022/03/07 04:50:06;;;;;;;;;;;128.50;2252.80;;;;;;5055865;28;19912;-78
2022/03/07 04:52:32;;;;;;;;;;;128.60;2252.80;;;;;;5055986;28;19915;-78
2022/03/07 04:54:57;;;;;;;;;;;128.40;2252.80;;;;;;5057071;28;19904;-79
2022/03/07 04:57:23;;;;;;;;;;;128.40;2252.80;;;;;;5055323;28;19992;-78
2022/03/07 04:59:48;;;;;;;;;;;128.20;2252.80;;;;;;5055838;28;19911;-79
2022/03/07 05:02:14;;;;;;;;;;;128.20;2252.80;;;;;;5055752;28;19904;-79
2022/03/07 05:04:40;;;;;;;;;;;128.50;2252.80;;;;;;5056768;28;20370;-79
2022/03/07 05:07:06;;;;;;;;;;;128.50;2252.80;;;;;;5054441;28;19950;-79
2022/03/07 05:09:32;;;;;;;;;;;128.30;2252.80;;;;;;5055492;28;19904;-79
2022/03/07 05:11:58;;;;;;;;;;;128.40;2252.80;;;;;;5055354;28;19951;-78
2022/03/07 05:14:23;;;;;;;;;;;128.80;2252.80;;;;;;5055446;28;19935;-78
2022/03/07 05:16:49;;;;;;;;;;;128.60;2252.80;;;;;;5055307;28;19915;-79
2022/03/07 05:19:15;;;;;;;;;;;128.70;2252.80;;;;;;5055201;28;19905;-79
2022/03/07 05:21:40;;;;;;;;;;;128.80;2252.80;;;;;;5054857;28;19905;-79
2022/03/07 05:24:06;;;;;;;;;;;128.80;2252.80;;;;;;5055186;28;19912;-78
2022/03/07 05:26:32;;;;;;;;;;;128.90;2252.80;;;;;;5056245;28;19908;-78
2022/03/07 05:28:57;;;;;;;;;;;128.90;2252.80;;;;;;5055236;28;19905;-79
2022/03/07 05:31:23;;;;;;;;;;;153.60;2252.80;;;;;;5055544;28;19905;-79
2022/03/07 05:33:48;;;;;;;;;;;153.60;2252.80;;;;;;5054589;28;19912;-79
2022/03/07 05:36:14;;;;;;;;;;;153.60;2252.80;;;;;;5055126;28;19912;-79
2022/03/07 05:38:40;;;;;;;;;;;153.70;2252.80;;;;;;5055098;28;20037;-79
2022/03/07 05:41:05;;;;;;;;;;;153.70;2252.80;;;;;;5055021;28;19905;-79
2022/03/07 05:43:31;;;;;;;;;;;153.70;2252.80;;;;;;5054823;28;19920;-79
2022/03/07 05:45:57;;;;;;;;;;;153.60;2252.80;;;;;;5054977;28;19912;-78
2022/03/07 05:48:22;;;;;;;;;;;153.70;2252.80;;;;;;5056150;28;20366;-79
2022/03/07 05:50:48;;;;;;;;;;;153.60;2252.80;;;;;;5054683;28;19999;-79
2022/03/07 05:53:14;;;;;;;;;;;153.70;2252.80;;;;;;5053915;28;19920;-79
2022/03/07 05:55:41;;;;;;;;;;;153.70;2252.80;;;;;;5054236;28;19908;-79
2022/03/07 05:58:07;;;;;;;;;;;153.70;2252.80;;;;;;5054097;28;19905;-78
2022/03/07 06:00:32;;;;;;;;;;;153.80;2252.80;;;;;;5054517;28;19911;-78
2022/03/07 06:02:58;;;;;;;;;;;153.80;2252.80;;;;;;5055514;28;19904;-78
2022/03/07 06:05:24;;;;;;;;;;;153.80;2252.80;;;;;;5055543;28;19917;-78
2022/03/07 06:07:49;;;;;;;;;;;153.80;2252.80;;;;;;5054379;28;19908;-79
2022/03/07 06:10:15;;;;;;;;;;;153.80;2252.80;;;;;;5055352;28;19911;-87
2022/03/07 06:12:40;;;;;;;;;;;153.80;2252.80;;;;;;5054102;28;20320;-79
2022/03/07 06:15:06;;;;;;;;;;;153.80;2252.80;;;;;;5055406;28;19963;-80
2022/03/07 06:17:32;;;;;;;;;;;153.90;2252.80;;;;;;5055174;28;19912;-80
2022/03/07 06:19:58;;;;;;;;;;;153.90;2252.80;;;;;;5055366;28;19905;-80
2022/03/07 06:22:23;;;;;;;;;;;153.80;2252.80;;;;;;5045297;28;19915;-76
2022/03/07 06:24:49;;;;;;;;;;;153.90;2252.80;;;;;;5045410;28;20381;-78
2022/03/07 06:27:15;;;;;;;;;;;153.90;2252.80;;;;;;5046229;28;19905;-81
2022/03/07 06:29:40;;;;;;;;;;;153.90;2252.80;;;;;;5043544;28;19941;-77
2022/03/07 06:32:07;;;;;;;;;;;153.70;2252.80;;;;;;5042288;28;19999;-80
2022/03/07 06:34:33;;;;;;;;;;;153.80;2252.80;;;;;;5042488;28;19908;-79
2022/03/07 06:36:59;;;;;;;;;;;153.70;2252.80;;;;;;5045703;28;19954;-77
2022/03/07 06:39:27;;;;;;;;;;;153.80;2252.80;;;;;;5045608;28;20440;-79
2022/03/07 06:41:53;;;;;;;;;;;153.80;2252.80;;;;;;5037358;28;19909;-77
2022/03/07 06:44:18;;;;;;;;;;;153.90;2252.80;;;;;;5035008;28;19915;-76
2022/03/07 06:46:44;;;;;;;;;;;153.90;2252.80;;;;;;5034958;28;19908;-79
2022/03/07 06:49:09;;;;;;;;;;;153.90;2252.80;;;;;;5035233;28;19916;-77
2022/03/07 06:51:35;;;;;;;;;;;154.00;2252.80;;;;;;5033456;28;20605;-81
2022/03/07 06:54:01;;;;;;;;;;;154.00;2252.80;;;;;;5040326;28;19921;-86
2022/03/07 06:56:26;;;;;;;;;;;153.80;2252.80;;;;;;5042963;28;19905;-81
2022/03/07 06:58:52;;;;;;;;;;;128.80;2252.80;;;;;;5045456;28;19905;-79
2022/03/07 07:01:17;;;;;;;;;;;153.60;2252.80;;;;;;5037146;28;19912;-77
2022/03/07 07:03:43;;;;;;;;;;;153.80;2252.80;;;;;;5034540;28;20362;-79
2022/03/07 07:06:08;;;;;;;;;;;154.00;2252.80;;;;;;5041755;28;20453;-82
2022/03/07 07:08:34;;;;;;;;;;;154.10;2252.80;;;;;;5054285;28;19912;-78
2022/03/07 07:10:59;;;;;;;;;;;153.70;2252.80;;;;;;5053130;28;19915;-80
2022/03/07 07:13:25;;;;;;;;;;;153.80;2252.80;;;;;;5054553;28;19970;-77
2022/03/07 07:15:55;;;;;;;;;;;153.90;2252.80;;;;;;5041971;28;19959;-78
2022/03/07 07:18:21;;;;;;;;;;;153.90;2252.80;;;;;;5041117;28;20300;-79
2022/03/07 07:20:47;;;;;;;;;;;154.10;2252.80;;;;;;5043701;28;19904;-79
2022/03/07 07:23:13;;;;;;;;;;;154.20;2252.80;;;;;;5042360;28;19905;-79
2022/03/07 07:25:38;;;;;;;;;;;154.00;2252.80;;;;;;5044727;28;19909;-82
2022/03/07 07:28:04;;;;;;;;;;;153.90;2252.80;;;;;;5044970;28;19908;-80
2022/03/07 07:30:29;;;;;;;;;;;153.80;2252.80;;;;;;5042541;28;19955;-77
2022/03/07 07:32:55;;;;;;;;;;;153.90;2252.80;;;;;;5047130;28;19970;-81
2022/03/07 07:35:21;;;;;;;;;;;153.90;2252.80;;;;;;5053168;28;20361;-77
2022/03/07 07:37:46;;;;;;;;;;;153.80;2252.80;;;;;;5054096;28;20262;-78
2022/03/07 07:40:12;;;;;;;;;;;153.90;2252.80;;;;;;5054088;28;19905;-81
2022/03/07 07:42:38;;;;;;;;;;;154.00;2252.80;;;;;;5053844;28;19979;-80
2022/03/07 07:45:06;;;;;;;;;;;154.20;2252.80;;;;;;5053868;28;20007;-80
2022/03/07 07:47:32;;;;;;;;;;;154.20;2252.80;;;;;;5053948;28;19905;-77
2022/03/07 07:49:57;;;;;;;;;;;154.00;2252.80;;;;;;5051829;28;19905;-81
2022/03/07 07:52:23;;;;;;;;;;;154.30;2252.80;;;;;;5053932;28;20274;-82
2022/03/07 07:54:48;;;;;;;;;;;154.40;2252.80;;;;;;5052416;28;19905;-76
2022/03/07 07:57:14;;;;;;;;;;;154.30;2252.80;;;;;;5053810;28;19940;-83
2022/03/07 07:59:39;;;;;;;;;;;154.30;2252.80;;;;;;5052774;28;19913;-81
2022/03/07 08:02:05;;;;;;;;;;;154.30;2252.80;;;;;;5052845;28;20262;-80
2022/03/07 08:04:31;;;;;;;;;;;154.50;2252.80;;;;;;5052761;28;19969;-76
2022/03/07 08:06:56;;;;;;;;;;;154.50;2252.80;;;;;;5052714;28;20282;-80
2022/03/07 08:09:22;;;;;;;;;;;154.20;2252.80;;;;;;5053881;28;19920;-79
2022/03/07 08:11:47;;;;;;;;;;;154.20;2252.80;;;;;;5053458;28;20018;-80
2022/03/07 08:14:13;;;;;;;;;;;154.40;2252.80;;;;;;5052629;28;19916;-77
2022/03/07 08:16:39;;;;;;;;;;;154.30;2252.80;;;;;;5053699;28;20251;-83
2022/03/07 08:19:04;;;;;;;;;;;154.40;2252.80;;;;;;5053669;28;19905;-76
2022/03/07 08:21:30;;;;;;;;;;;154.40;2252.80;;;;;;5053839;28;19993;-80
2022/03/07 08:23:56;;;;;;;;;;;154.30;2252.80;;;;;;5053667;28;19905;-80
2022/03/07 08:26:22;;;;;;;;;;;154.20;2252.80;;;;;;5052421;28;19911;-77
2022/03/07 08:28:48;;;;;;;;;;;154.30;2252.80;;;;;;5053931;28;19909;-81
2022/03/07 08:31:14;;;;;;;;;;;154.40;2252.80;;;;;;5053578;28;20039;-84
2022/03/07 08:33:39;;;;;;;;;;;179.20;2252.80;;;;;;5052486;28;20381;-80
2022/03/07 08:36:05;;;;;;;;;;;154.20;2252.80;;;;;;5052396;28;20370;-82
2022/03/07 08:38:31;;;;;;;;;;;154.50;2252.80;;;;;;5044869;28;19908;-82
2022/03/07 08:40:57;;;;;;;;;;;154.50;2252.80;;;;;;5042356;28;19905;-88
2022/03/07 08:43:23;;;;;;;;;;;179.20;2252.80;;;;;;5046551;28;20407;-77
2022/03/07 08:45:48;;;;;;;;;;;179.20;2252.80;;;;;;5044807;28;19928;-77
2022/03/07 08:48:14;;;;;;;;;;;154.40;2252.80;;;;;;5047017;28;19905;-77
2022/03/07 08:50:40;;;;;;;;;;;179.20;2252.80;;;;;;5055441;28;19915;-77
2022/03/07 08:53:05;;;;;;;;;;;179.20;2252.80;;;;;;5055643;28;20057;-80
2022/03/07 08:55:31;;;;;;;;;;;179.30;2252.80;;;;;;5055985;28;19905;-82
2022/03/07 08:57:57;;;;;;;;;;;179.40;2252.80;;;;;;5056432;28;20392;-80
2022/03/07 09:00:23;;;;;;;;;;;179.40;2252.80;;;;;;5041284;28;20283;-84
2022/03/07 09:02:48;;;;;;;;;;;179.40;2252.80;;;;;;5032581;28;19909;-86
2022/03/07 09:05:14;;;;;;;;;;;179.30;2252.80;;;;;;5037800;28;20020;-83
2022/03/07 09:07:40;;;;;;;;;;;179.50;2252.80;;;;;;5045851;28;19916;-80
2022/03/07 09:10:06;;;;;;;;;;;179.40;2252.80;;;;;;5042558;28;19912;-82
2022/03/07 09:12:31;;;;;;;;;;;179.30;2252.80;;;;;;5035284;28;19919;-81
2022/03/07 09:14:58;;;;;;;;;;;179.50;2252.80;;;;;;5035476;28;19917;-79
2022/03/07 09:17:24;;;;;;;;;;;179.50;2252.80;;;;;;5036662;28;19939;-78
2022/03/07 09:19:50;;;;;;;;;;;179.50;2252.80;;;;;;5036635;28;20286;-78
2022/03/07 09:22:15;;;;;;;;;;;179.40;2252.80;;;;;;5035448;28;19905;-78
2022/03/07 09:24:41;;;;;;;;;;;179.60;2252.80;;;;;;5035264;28;19912;-77
2022/03/07 09:27:06;;;;;;;;;;;179.50;2252.80;;;;;;5036320;28;20274;-85
2022/03/07 09:29:32;;;;;;;;;;;179.50;2252.80;;;;;;5039037;28;19924;-81
2022/03/07 09:31:57;;;;;;;;;;;179.50;2252.80;;;;;;5045996;28;19991;-79
2022/03/07 09:34:23;;;;;;;;;;;179.70;2252.80;;;;;;5044140;28;20382;-80
2022/03/07 09:36:48;;;;;;;;;;;179.50;2252.80;;;;;;5056322;28;20342;-83
2022/03/07 09:39:14;;;;;;;;;;;179.50;2252.80;;;;;;5055200;28;19905;-82
2022/03/07 09:41:43;;;;;;;;;;;179.50;2252.80;;;;;;5048899;28;19917;-78
2022/03/07 09:44:09;;;;;;;;;;;179.60;2252.80;;;;;;5046082;28;19919;-84
2022/03/07 09:46:34;;;;;;;;;;;179.70;2252.80;;;;;;5046578;28;19931;-82
2022/03/07 09:49:00;;;;;;;;;;;179.70;2252.80;;;;;;5054584;28;20385;-78
2022/03/07 09:51:25;;;;;;;;;;;179.60;2252.80;;;;;;5054552;28;19912;-81
2022/03/07 09:53:51;;;;;;;;;;;179.80;2252.80;;;;;;5050729;28;20318;-79
2022/03/07 09:56:16;;;;;;;;;;;179.70;2252.80;;;;;;5046108;28;19911;-78
2022/03/07 09:58:42;;;;;;;;;;;179.60;2252.80;;;;;;5042413;28;19908;-87
2022/03/07 10:01:13;;;;;;;;;;;179.50;2252.80;;;;;;5043084;28;20339;-80
2022/03/07 10:03:39;;;;;;;;;;;179.70;2252.80;;;;;;5040710;28;19954;-80
2022/03/07 10:06:15;;;;;;;;;;;179.40;2252.80;;;;;;5055784;28;19912;-80
2022/03/07 10:08:50;;;;;;;;;;;179.50;2252.80;;;;;;5053139;28;19904;-77
2022/03/07 10:11:16;;;;;;;;;;;179.70;2252.80;;;;;;5042151;28;19941;-80
2022/03/07 10:13:48;;;;;;;;;;;179.70;2252.80;;;;;;5041702;28;20006;-85
2022/03/07 10:16:14;;;;;;;;;;;179.80;2252.80;;;;;;5035521;28;20325;-81
2022/03/07 10:18:47;;;;;;;;;;;179.90;2252.80;;;;;;5041595;28;19913;-82
2022/03/07 10:21:20;;;;;;;;;;;179.80;2252.80;;;;;;5046405;28;19905;-80
2022/03/07 10:23:56;;;;;;;;;;;179.80;2252.80;;;;;;5042904;28;19958;-84
2022/03/07 10:26:22;;;;;;;;;;;179.70;2252.80;;;;;;5041110;28;19952;-80
2022/03/07 10:28:52;;;;;;;;;;;179.80;2252.80;;;;;;5043557;28;20004;-80
2022/03/07 10:31:18;;;;;;;;;;;179.90;2252.80;;;;;;5042612;28;19931;-86
2022/03/07 10:33:47;;;;;;;;;;;179.90;2252.80;;;;;;5048618;28;19920;-87
2022/03/07 10:36:13;;;;;;;;;;;179.90;2252.80;;;;;;5042343;28;20389;-86
2022/03/07 10:38:39;;;;;;;;;;;179.90;2252.80;;;;;;5043951;28;19912;-85
2022/03/07 10:41:05;;;;;;;;;;;179.90;2252.80;;;;;;5044480;28;19999;-80
2022/03/07 10:43:31;;;;;;;;;;;180.00;2252.80;;;;;;5053649;28;20406;-80
2022/03/07 10:45:58;;;;;;;;;;;180.00;2252.80;;;;;;5053752;28;19963;-82
2022/03/07 10:48:25;;;;;;;;;;;180.10;2252.80;;;;;;5054356;28;20011;-81
2022/03/07 10:50:55;;;;;;;;;;;180.00;2252.80;;;;;;5054276;28;19911;-80
2022/03/07 10:53:21;;;;;;;;;;;180.10;2252.80;;;;;;5054052;28;19960;-80
2022/03/07 10:55:54;;;;;;;;;;;180.00;2252.80;;;;;;5053802;28;19905;-82
2022/03/07 10:58:20;;;;;;;;;;;180.00;2252.80;;;;;;5053897;28;19916;-78
2022/03/07 11:00:50;;;;;;;;;;;180.10;2252.80;;;;;;5053917;28;19905;-82
2022/03/07 11:03:18;;;;;;;;;;;204.80;2252.80;;;;;;5053463;28;19912;-82
2022/03/07 11:05:45;;;;;;;;;;;180.10;2252.80;;;;;;5053864;28;19916;-81
2022/03/07 11:08:10;;;;;;;;;;;204.80;2252.80;;;;;;5053737;28;19908;-80
2022/03/07 11:10:36;;;;;;;;;;;204.90;2252.80;;;;;;5053633;28;19905;-84
2022/03/07 11:13:02;;;;;;;;;;;204.80;2252.80;;;;;;5053238;28;19912;-80
2022/03/07 11:15:28;;;;;;;;;;;180.10;2252.80;;;;;;5053756;28;19916;-83
2022/03/07 11:17:54;;;;;;;;;;;204.80;2252.80;;;;;;5053477;28;19904;-86
2022/03/07 11:20:20;;;;;;;;;;;180.10;2252.80;;;;;;5053880;28;19908;-80
2022/03/07 11:22:45;;;;;;;;;;;180.00;2252.80;;;;;;5053567;28;19911;-83
2022/03/07 11:25:15;;;;;;;;;;;180.00;2252.80;;;;;;5053752;28;19950;-80
2022/03/07 11:27:41;;;;;;;;;;;179.90;2252.80;;;;;;5054528;28;19905;-85
2022/03/07 11:30:32;;;;;;;;;;;179.80;2252.80;;;;;;5053466;28;19904;-83
2022/03/07 11:33:07;;;;;;;;;;;179.90;2252.80;;;;;;5051518;28;20074;-82
2022/03/07 11:35:32;;;;;;;;;;;179.80;2252.80;;;;;;5052010;28;19904;-83
2022/03/07 11:38:08;;;;;;;;;;;179.80;2252.80;;;;;;5053194;28;20035;-80
2022/03/07 11:40:34;;;;;;;;;;;179.90;2252.80;;;;;;5052882;28;19911;-85
2022/03/07 11:43:06;;;;;;;;;;;180.00;2252.80;;;;;;5054018;28;19913;-82
2022/03/07 11:45:38;;;;;;;;;;;179.90;2252.80;;;;;;5048917;28;20315;-84
2022/03/07 11:48:11;;;;;;;;;;;179.80;2252.80;;;;;;5036937;28;19905;-84
2022/03/07 11:50:37;;;;;;;;;;;179.80;2252.80;;;;;;5042297;28;19919;-83
2022/03/07 11:53:03;;;;;;;;;;;179.80;2252.80;;;;;;5036572;28;20019;-80
2022/03/07 11:55:29;;;;;;;;;;;179.90;2252.80;;;;;;5034609;28;19912;-84
2022/03/07 11:57:59;;;;;;;;;;;179.90;2252.80;;;;;;5033040;28;19909;-80
2022/03/07 12:00:32;;;;;;;;;;;179.90;2252.80;;;;;;5033450;28;19951;-79
2022/03/07 12:02:59;;;;;;;;;;;204.80;2252.80;;;;;;5033322;28;19905;-89
2022/03/07 12:05:25;;;;;;;;;;;204.90;2252.80;;;;;;5034263;28;20020;-90
2022/03/07 12:07:51;;;;;;;;;;;180.10;2252.80;;;;;;5033010;28;19944;-78
2022/03/07 12:10:17;;;;;;;;;;;180.00;2252.80;;;;;;5038902;28;19987;-78
2022/03/07 12:12:43;;;;;;;;;;;180.10;2252.80;;;;;;5042248;28;20004;-81
2022/03/07 12:15:09;;;;;;;;;;;180.00;2252.80;;;;;;5036418;28;19964;-80
2022/03/07 12:17:35;;;;;;;;;;;179.90;2252.80;;;;;;5046905;28;19905;-80
2022/03/07 12:20:01;;;;;;;;;;;179.70;2252.80;;;;;;5049467;28;19912;-84
2022/03/07 12:22:27;;;;;;;;;;;179.80;2252.80;;;;;;5028232;28;19916;-88
2022/03/07 12:24:56;;;;;;;;;;;180.00;2252.80;;;;;;5037834;28;19912;-80
2022/03/07 12:27:25;;;;;;;;;;;180.00;2252.80;;;;;;5045829;28;19913;-80
2022/03/07 12:29:54;;;;;;;;;;;180.10;2252.80;;;;;;5051074;28;19909;-79
2022/03/07 12:32:19;;;;;;;;;;;204.80;2252.80;;;;;;5040955;28;20469;-84
2022/03/07 12:34:45;;;;;;;;;;;204.80;2252.80;;;;;;5025406;28;19917;-81
2022/03/07 12:37:17;;;;;;;;;;;204.90;2252.80;;;;;;5045676;28;19914;-89
2022/03/07 12:39:46;;;;;;;;;;;205.00;2252.80;;;;;;5042065;28;20441;-88
2022/03/07 12:42:12;;;;;;;;;;;205.00;2252.80;;;;;;5044534;28;19909;-89
2022/03/07 12:44:38;;;;;;;;;;;205.20;2252.80;;;;;;5038201;28;20384;-83
2022/03/07 12:47:04;;;;;;;;;;;205.20;2252.80;;;;;;5036489;28;19905;-86
2022/03/07 12:49:29;;;;;;;;;;;205.30;2252.80;;;;;;5035468;28;19916;-85
2022/03/07 12:51:55;;;;;;;;;;;205.00;2252.80;;;;;;5035790;28;19912;-86
2022/03/07 12:54:28;;;;;;;;;;;205.20;2252.80;;;;;;5036266;28;19964;-81
2022/03/07 12:56:54;;;;;;;;;;;204.80;2252.80;;;;;;5035970;28;20392;-84
2022/03/07 12:59:23;;;;;;;;;;;204.90;2252.80;;;;;;5036365;28;19912;-84
2022/03/07 13:01:50;;;;;;;;;;;205.20;2252.80;;;;;;5037575;28;20344;-83
2022/03/07 13:04:17;;;;;;;;;;;205.30;2252.80;;;;;;5036104;28;19964;-79
2022/03/07 13:06:47;;;;;;;;;;;205.50;2252.80;;;;;;5037439;28;20355;-81
2022/03/07 13:09:13;;;;;;;;;;;205.20;2252.80;;;;;;5036221;28;19960;-82
2022/03/07 13:11:43;;;;;;;;;;;205.20;2252.80;;;;;;5036021;28;19909;-80
2022/03/07 13:14:17;;;;;;;;;;;205.30;2252.80;;;;;;5038251;28;19921;-82
2022/03/07 13:16:42;;;;;;;;;;;205.20;2252.80;;;;;;5045772;28;19936;-79
2022/03/07 13:19:09;;;;;;;;;;;205.40;2252.80;;;;;;5044177;28;19948;-81
2022/03/07 13:21:39;;;;;;;;;;;205.40;2252.80;;;;;;5044935;28;19905;-80
2022/03/07 13:24:06;;;;;;;;;;;205.20;2252.80;;;;;;5043009;28;19961;-79
2022/03/07 13:26:32;;;;;;;;;;;205.30;2252.80;;;;;;5041519;28;20004;-82
2022/03/07 13:29:07;;;;;;;;;;;205.30;2252.80;;;;;;5042182;28;20264;-82
2022/03/07 13:31:46;;;;;;;;;;;205.40;2252.80;;;;;;5044786;28;19905;-82
2022/03/07 13:34:13;;;;;;;;;;;205.50;2227.20;;;;;;5040127;28;19916;-81
2022/03/07 13:36:59;;;;;;;;;;;205.70;2150.40;;;;;;5028277;28;20317;-78